createdAt,value
2019-02-07T00:01:56.978Z,22.70
2019-02-07T00:04:27.783Z,23.67
2019-02-07T00:06:58.351Z,23.80
2019-02-07T00:09:29.552Z,28.73
2019-02-07T00:12:00.093Z,23.57
2019-02-07T00:14:49.513Z,23.50
2019-02-07T00:17:21.154Z,25.30
2019-02-07T00:19:52.117Z,22.43
2019-02-07T00:22:23.016Z,23.20
2019-02-07T00:24:53.849Z,27.53
2019-02-07T00:27:24.810Z,26.33
2019-02-07T00:29:55.710Z,22.83
2019-02-07T00:32:27.276Z,34.03
2019-02-07T00:34:57.823Z,28.73
2019-02-07T00:37:29.070Z,21.77
2019-02-07T00:39:59.868Z,23.57
2019-02-07T00:42:30.687Z,26.73
2019-02-07T00:45:01.598Z,23.87
2019-02-07T00:47:32.102Z,24.67
2019-02-07T00:50:02.738Z,26.90
2019-02-07T00:52:33.243Z,20.62
2019-02-07T00:55:04.018Z,23.33
2019-02-07T00:57:35.103Z,21.05
2019-02-07T01:00:07.893Z,21.67
2019-02-07T01:02:39.128Z,17.73
2019-02-07T01:05:11.273Z,24.17
2019-02-07T01:07:42.116Z,23.92
2019-02-07T01:10:16.134Z,17.83
2019-02-07T01:12:47.021Z,20.80
2019-02-07T01:15:17.984Z,21.57
2019-02-07T01:17:48.790Z,24.83
2019-02-07T01:20:19.519Z,23.77
2019-02-07T01:22:50.013Z,22.43
2019-02-07T01:25:21.948Z,23.97
2019-02-07T01:27:53.359Z,20.13
2019-02-07T01:30:24.263Z,23.37
2019-02-07T01:32:55.187Z,19.50
2019-02-07T01:35:27.173Z,24.20
2019-02-07T01:37:58.047Z,24.57
2019-02-07T01:40:29.052Z,21.48
2019-02-07T01:42:59.865Z,21.30
2019-02-07T01:45:30.500Z,22.27
2019-02-07T01:48:01.019Z,19.80
2019-02-07T01:50:31.950Z,23.13
2019-02-07T01:53:02.763Z,22.58
2019-02-07T01:55:33.300Z,20.15
2019-02-07T01:58:04.070Z,20.60
2019-02-07T02:00:35.156Z,22.58
2019-02-07T02:03:06.220Z,24.60
2019-02-07T02:05:36.880Z,30.10
2019-02-07T02:08:07.621Z,23.30
2019-02-07T02:10:38.150Z,22.82
2019-02-07T02:13:08.951Z,20.20
2019-02-07T02:15:39.485Z,27.63
2019-02-07T02:18:10.263Z,22.47
2019-02-07T02:20:40.859Z,23.55
2019-02-07T02:23:11.490Z,24.73
2019-02-07T02:25:42.324Z,22.37
2019-02-07T02:28:13.050Z,23.63
2019-02-07T02:30:44.235Z,20.32
2019-02-07T02:33:14.936Z,21.23
2019-02-07T02:35:45.465Z,23.23
2019-02-07T02:38:16.010Z,18.63
2019-02-07T02:40:46.522Z,20.83
2019-02-07T02:43:17.207Z,24.10
2019-02-07T02:45:48.026Z,20.23
2019-02-07T02:48:18.550Z,27.43
2019-02-07T02:50:49.102Z,22.27
2019-02-07T02:53:19.899Z,18.67
2019-02-07T02:55:51.436Z,21.47
2019-02-07T02:58:22.253Z,22.43
2019-02-07T03:01:27.132Z,19.20
2019-02-07T03:04:25.620Z,23.00
2019-02-07T03:07:18.114Z,19.03
2019-02-07T03:10:13.794Z,22.07
2019-02-07T03:13:01.967Z,19.50
2019-02-07T03:15:49.786Z,21.20
2019-02-07T03:18:37.037Z,23.43
2019-02-07T03:21:29.274Z,20.13
2019-02-07T03:24:13.858Z,19.87
2019-02-07T03:27:12.216Z,19.40
2019-02-07T03:30:17.035Z,24.00
2019-02-07T03:33:10.098Z,24.50
2019-02-07T03:36:06.054Z,23.10
2019-02-07T03:38:58.668Z,23.77
2019-02-07T03:41:46.003Z,27.67
2019-02-07T03:44:39.153Z,23.13
2019-02-07T03:47:27.705Z,23.52
2019-02-07T03:50:35.565Z,20.93
2019-02-07T03:53:27.752Z,21.17
2019-02-07T03:56:19.864Z,18.90
2019-02-07T03:59:08.058Z,19.33
2019-02-07T04:01:48.570Z,21.68
2019-02-07T04:04:27.567Z,21.83
2019-02-07T04:07:17.188Z,22.30
2019-02-07T04:10:06.639Z,22.37
2019-02-07T04:12:57.408Z,21.10
2019-02-07T04:15:49.910Z,22.53
2019-02-07T04:18:47.082Z,20.70
2019-02-07T04:21:34.982Z,23.13
2019-02-07T04:24:30.676Z,25.43
2019-02-07T04:27:14.390Z,23.27
2019-02-07T04:30:06.717Z,24.50
2019-02-07T04:32:51.885Z,21.27
2019-02-07T04:35:47.194Z,21.40
2019-02-07T04:38:33.872Z,24.53
2019-02-07T04:41:22.201Z,19.63
2019-02-07T04:44:17.995Z,23.93
2019-02-07T04:47:06.168Z,23.20
2019-02-07T04:49:49.144Z,22.25
2019-02-07T04:52:36.971Z,24.93
2019-02-07T04:55:35.745Z,21.57
2019-02-07T04:58:25.678Z,22.03
2019-02-07T05:01:24.340Z,21.30
2019-02-07T05:04:06.598Z,20.90
2019-02-07T05:06:54.976Z,21.70
2019-02-07T05:09:43.025Z,22.43
2019-02-07T05:12:35.535Z,25.47
2019-02-07T05:15:38.270Z,22.80
2019-02-07T05:18:21.470Z,19.90
2019-02-07T05:21:09.826Z,20.83
2019-02-07T05:23:57.648Z,22.43
2019-02-07T05:26:54.297Z,19.33
2019-02-07T05:29:41.292Z,22.93
2019-02-07T05:32:20.821Z,25.43
2019-02-07T05:35:01.620Z,21.27
2019-02-07T05:37:49.780Z,20.20
2019-02-07T05:40:31.521Z,22.40
2019-02-07T05:43:21.740Z,19.90
2019-02-07T05:46:10.213Z,24.77
2019-02-07T05:49:02.057Z,23.03
2019-02-07T05:52:00.930Z,24.63
2019-02-07T05:54:49.319Z,18.97
2019-02-07T05:57:37.375Z,24.63
2019-02-07T06:00:27.506Z,24.53
2019-02-07T06:03:16.061Z,23.30
2019-02-07T06:06:04.165Z,18.37
2019-02-07T06:08:52.049Z,25.40
2019-02-07T06:11:50.464Z,27.47
2019-02-07T06:14:55.048Z,22.73
2019-02-07T06:17:44.561Z,20.23
2019-02-07T06:20:32.874Z,26.80
2019-02-07T06:23:32.341Z,19.47
2019-02-07T06:26:13.779Z,24.50
2019-02-07T06:28:57.617Z,24.97
2019-02-07T06:31:45.117Z,23.33
2019-02-07T06:34:33.085Z,22.47
2019-02-07T06:37:34.734Z,22.10
2019-02-07T06:40:25.756Z,20.00
2019-02-07T06:43:13.971Z,22.45
2019-02-07T06:46:22.030Z,22.13
2019-02-07T06:49:26.428Z,29.07
2019-02-07T06:52:15.869Z,24.00
2019-02-07T06:55:00.730Z,21.57
2019-02-07T06:58:02.342Z,21.10
2019-02-07T07:01:03.722Z,17.63
2019-02-07T07:03:53.446Z,26.37
2019-02-07T07:06:43.741Z,27.60
2019-02-07T07:09:31.833Z,23.10
2019-02-07T07:12:20.433Z,26.47
2019-02-07T07:15:09.838Z,22.87
2019-02-07T07:17:51.736Z,24.23
2019-02-07T07:20:47.657Z,23.03
2019-02-07T07:23:48.226Z,21.37
2019-02-07T07:26:36.027Z,22.50
2019-02-07T07:29:34.591Z,29.03
2019-02-07T07:32:23.139Z,22.67
2019-02-07T07:35:18.366Z,27.60
2019-02-07T07:38:16.981Z,20.10
2019-02-07T07:41:06.105Z,26.50
2019-02-07T07:43:54.558Z,26.35
2019-02-07T07:46:43.019Z,25.83
2019-02-07T07:49:44.637Z,24.07
2019-02-07T07:52:33.982Z,25.57
2019-02-07T07:55:13.858Z,29.43
2019-02-07T07:58:02.396Z,27.60
2019-02-07T08:00:51.939Z,23.20
2019-02-07T08:03:40.060Z,23.00
2019-02-07T08:06:18.967Z,25.40
2019-02-07T08:09:20.816Z,28.70
2019-02-07T08:12:16.953Z,24.60
2019-02-07T08:15:18.461Z,20.83
2019-02-07T08:18:06.580Z,23.97
2019-02-07T08:21:02.168Z,20.07
2019-02-07T08:23:45.756Z,24.10
2019-02-07T08:26:34.020Z,24.85
2019-02-07T08:29:22.383Z,28.10
2019-02-07T08:32:14.815Z,26.50
2019-02-07T08:34:58.819Z,26.35
2019-02-07T08:37:54.983Z,23.38
2019-02-07T08:40:37.228Z,23.87
2019-02-07T08:43:44.989Z,21.17
2019-02-07T08:46:49.691Z,22.07
2019-02-07T08:49:38.084Z,24.70
2019-02-07T08:52:30.886Z,22.17
2019-02-07T08:55:23.088Z,23.80
2019-02-07T08:58:26.377Z,28.20
2019-02-07T09:01:22.223Z,29.90
2019-02-07T09:04:23.616Z,22.43
2019-02-07T09:07:13.058Z,24.53
2019-02-07T09:09:53.234Z,24.35
2019-02-07T09:12:42.735Z,26.87
2019-02-07T09:15:32.366Z,24.07
2019-02-07T09:18:29.055Z,28.87
2019-02-07T09:21:17.951Z,27.93
2019-02-07T09:24:22.634Z,28.07
2019-02-07T09:27:27.090Z,28.03
2019-02-07T09:30:25.614Z,24.73
2019-02-07T09:33:27.349Z,23.07
2019-02-07T09:36:15.590Z,21.57
2019-02-07T09:39:07.940Z,23.07
2019-02-07T09:42:15.630Z,21.20
2019-02-07T09:45:20.025Z,24.07
2019-02-07T09:48:21.631Z,28.33
2019-02-07T09:51:10.121Z,19.03
2019-02-07T09:54:11.854Z,26.07
2019-02-07T09:57:04.067Z,20.23
2019-02-07T09:59:47.860Z,24.40
2019-02-07T10:02:27.939Z,21.60
2019-02-07T10:05:23.603Z,19.27
2019-02-07T10:08:15.970Z,20.70
2019-02-07T10:11:07.512Z,20.03
2019-02-07T10:13:59.811Z,23.85
2019-02-07T10:16:47.957Z,23.57
2019-02-07T10:19:36.536Z,21.93
2019-02-07T10:22:28.927Z,23.73
2019-02-07T10:25:21.490Z,21.90
2019-02-07T10:28:06.998Z,29.63
2019-02-07T10:31:13.432Z,30.37
2019-02-07T10:34:01.646Z,26.00
2019-02-07T10:37:07.995Z,22.87
2019-02-07T10:40:13.302Z,22.95
2019-02-07T10:43:01.661Z,23.05
2019-02-07T10:45:54.198Z,22.37
2019-02-07T10:48:49.832Z,22.75
2019-02-07T10:51:39.068Z,23.87
2019-02-07T10:54:30.022Z,23.47
2019-02-07T10:57:27.033Z,24.00
2019-02-07T11:00:19.870Z,22.23
2019-02-07T11:03:11.371Z,22.07
2019-02-07T11:06:16.459Z,18.60
2019-02-07T11:09:04.628Z,22.00
2019-02-07T11:11:50.225Z,19.47
2019-02-07T11:14:39.897Z,20.90
2019-02-07T11:17:32.345Z,17.73
2019-02-07T11:20:27.927Z,25.50
2019-02-07T11:23:32.316Z,25.53
2019-02-07T11:26:28.072Z,23.53
2019-02-07T11:29:16.659Z,26.17
2019-02-07T11:32:09.158Z,22.20
2019-02-07T11:34:59.667Z,25.55
2019-02-07T11:37:47.732Z,26.73
2019-02-07T11:40:52.128Z,32.37
2019-02-07T11:43:37.879Z,28.60
2019-02-07T11:46:27.591Z,31.13
2019-02-07T11:49:23.172Z,30.90
2019-02-07T11:52:19.032Z,24.87
2019-02-07T11:55:11.295Z,26.27
2019-02-07T11:58:16.327Z,26.07
2019-02-07T12:00:57.887Z,25.57
2019-02-07T12:03:56.361Z,25.17
2019-02-07T12:06:40.084Z,28.96
2019-02-07T12:09:33.379Z,23.67
2019-02-07T12:12:26.096Z,50.03
2019-02-07T12:15:14.368Z,46.30
2019-02-07T12:18:14.847Z,65.15
2019-02-07T12:21:08.559Z,64.00
2019-02-07T12:24:05.840Z,53.08
2019-02-07T12:27:07.647Z,38.73
2019-02-07T12:30:00.402Z,28.00
2019-02-07T12:32:50.540Z,23.80
2019-02-07T12:35:51.889Z,16.83
2019-02-07T12:39:01.998Z,13.27
2019-02-07T12:41:49.979Z,13.23
2019-02-07T12:44:45.591Z,20.80
2019-02-07T12:47:40.878Z,13.30
2019-02-07T12:50:46.736Z,18.73
2019-02-07T12:53:48.555Z,14.63
2019-02-07T12:56:45.901Z,14.00
2019-02-07T12:59:47.158Z,11.90
2019-02-07T13:02:30.458Z,12.60
2019-02-07T13:05:20.127Z,14.53
2019-02-07T13:08:12.716Z,15.10
2019-02-07T13:11:09.701Z,13.47
2019-02-07T13:13:56.149Z,13.55
2019-02-07T13:16:52.686Z,10.93
2019-02-07T13:19:50.981Z,9.60
2019-02-07T13:22:52.709Z,17.47
2019-02-07T13:25:40.309Z,7.57
2019-02-07T13:28:33.314Z,9.13
2019-02-07T13:31:29.253Z,11.63
2019-02-07T13:34:29.125Z,7.43
2019-02-07T13:37:15.261Z,7.63
2019-02-07T13:40:03.903Z,8.70
2019-02-07T13:42:51.885Z,9.50
2019-02-07T13:45:44.420Z,9.30
2019-02-07T13:48:24.492Z,9.73
2019-02-07T13:51:13.006Z,8.60
2019-02-07T13:54:02.547Z,10.57
2019-02-07T13:56:54.975Z,10.25
2019-02-07T13:59:39.519Z,8.80
2019-02-07T14:02:38.373Z,8.50
2019-02-07T14:05:28.417Z,9.98
2019-02-07T14:08:21.211Z,9.70
2019-02-07T14:11:02.483Z,8.87
2019-02-07T14:13:55.379Z,9.20
2019-02-07T14:16:45.223Z,9.53
2019-02-07T14:19:33.491Z,11.23
2019-02-07T14:22:22.164Z,10.93
2019-02-07T14:25:07.957Z,11.23
2019-02-07T14:27:55.995Z,9.85
2019-02-07T14:30:55.578Z,12.37
2019-02-07T14:33:44.827Z,10.60
2019-02-07T14:36:34.489Z,9.30
2019-02-07T14:39:32.808Z,9.83
2019-02-07T14:42:21.006Z,12.23
2019-02-07T14:45:16.631Z,12.53
2019-02-07T14:47:47.761Z,13.10
2019-02-07T14:50:18.891Z,13.37
2019-02-07T14:52:50.561Z,11.27
2019-02-07T14:55:21.483Z,36.37
2019-02-07T14:57:52.545Z,17.40
2019-02-07T15:00:24.905Z,13.23
2019-02-07T15:02:55.581Z,12.23
2019-02-07T15:05:26.437Z,13.00
2019-02-07T15:07:56.993Z,9.40
2019-02-07T15:10:28.776Z,12.13
2019-02-07T15:13:01.296Z,9.20
2019-02-07T15:15:32.159Z,11.13
2019-02-07T15:18:02.763Z,9.00
2019-02-07T15:20:33.614Z,9.53
2019-02-07T15:23:04.911Z,10.57
2019-02-07T15:25:35.792Z,8.80
2019-02-07T15:28:06.539Z,9.60
2019-02-07T15:30:37.842Z,10.28
2019-02-07T15:33:08.674Z,10.73
2019-02-07T15:35:43.929Z,10.53
2019-02-07T15:38:14.743Z,11.93
2019-02-07T15:40:46.085Z,12.10
2019-02-07T15:43:17.286Z,9.70
2019-02-07T15:45:47.842Z,11.00
2019-02-07T15:48:18.908Z,9.07
2019-02-07T15:50:49.783Z,9.67
2019-02-07T15:53:20.618Z,12.40
2019-02-07T15:55:51.933Z,9.97
2019-02-07T15:58:31.656Z,9.23
2019-02-07T16:01:08.524Z,11.37
2019-02-07T16:04:03.775Z,9.10
2019-02-07T16:06:34.843Z,9.95
2019-02-07T16:09:08.682Z,11.17
2019-02-07T16:11:40.109Z,10.90
2019-02-07T16:14:10.696Z,9.90
2019-02-07T16:16:41.546Z,7.83
2019-02-07T16:19:12.116Z,10.73
2019-02-07T16:21:42.973Z,10.95
2019-02-07T16:24:15.911Z,9.57
2019-02-07T16:26:46.094Z,9.47
2019-02-07T16:29:16.694Z,10.93
2019-02-07T16:31:47.526Z,10.87
2019-02-07T16:34:19.152Z,9.33
2019-02-07T16:36:50.063Z,9.60
2019-02-07T16:39:21.497Z,10.23
2019-02-07T16:41:52.139Z,13.47
2019-02-07T16:44:23.137Z,10.30
2019-02-07T16:46:54.571Z,9.60
2019-02-07T16:49:25.194Z,15.90
2019-02-07T16:51:55.749Z,10.80
2019-02-07T16:54:26.387Z,11.80
2019-02-07T16:56:57.026Z,14.40
2019-02-07T16:59:29.169Z,15.23
2019-02-07T17:01:59.671Z,16.43
2019-02-07T17:04:31.065Z,15.25
2019-02-07T17:07:01.776Z,19.20
2019-02-07T17:09:42.650Z,15.60
2019-02-07T17:12:13.418Z,16.40
2019-02-07T17:15:07.462Z,19.37
2019-02-07T17:17:38.177Z,15.60
2019-02-07T17:20:21.783Z,17.57
2019-02-07T17:22:52.943Z,15.10
2019-02-07T17:25:23.935Z,15.53
2019-02-07T17:27:54.722Z,16.93
2019-02-07T17:30:25.441Z,14.57
2019-02-07T17:32:56.277Z,14.07
2019-02-07T17:35:26.972Z,13.20
2019-02-07T17:37:57.707Z,12.13
2019-02-07T17:40:29.036Z,17.48
2019-02-07T17:42:59.738Z,12.97
2019-02-07T17:45:31.611Z,10.60
2019-02-07T17:48:02.169Z,11.57
2019-02-07T17:50:35.941Z,12.53
2019-02-07T17:53:08.504Z,12.03
2019-02-07T17:55:39.184Z,13.08
2019-02-07T17:58:10.632Z,12.47
2019-02-07T18:01:13.581Z,12.98
2019-02-07T18:03:44.751Z,12.85
2019-02-07T18:06:15.892Z,11.80
2019-02-07T18:08:46.815Z,15.45
2019-02-07T18:11:26.298Z,12.93
2019-02-07T18:13:56.885Z,14.37
2019-02-07T18:16:29.160Z,13.04
2019-02-07T18:18:59.791Z,14.97
2019-02-07T18:21:34.199Z,14.97
2019-02-07T18:24:03.112Z,18.27
2019-02-07T18:26:34.083Z,19.27
2019-02-07T18:29:05.202Z,14.73
2019-02-07T18:31:36.385Z,14.80
2019-02-07T18:34:07.067Z,16.50
2019-02-07T18:36:37.953Z,16.47
2019-02-07T18:39:10.713Z,17.30
2019-02-07T18:41:41.399Z,14.90
2019-02-07T18:44:12.455Z,14.27
2019-02-07T18:46:43.236Z,11.43
2019-02-07T18:49:13.908Z,14.10
2019-02-07T18:51:45.906Z,12.93
2019-02-07T18:54:16.560Z,19.90
2019-02-07T18:56:47.626Z,14.47
2019-02-07T18:59:18.242Z,13.57
2019-02-07T19:01:49.320Z,18.47
2019-02-07T19:04:20.420Z,16.93
2019-02-07T19:06:51.010Z,17.23
2019-02-07T19:09:21.611Z,15.70
2019-02-07T19:11:52.546Z,14.93
2019-02-07T19:14:23.182Z,17.27
2019-02-07T19:16:54.014Z,16.83
2019-02-07T19:19:24.853Z,20.02
2019-02-07T19:21:57.445Z,15.50
2019-02-07T19:24:31.961Z,17.14
2019-02-07T19:27:02.704Z,15.17
2019-02-07T19:29:33.364Z,14.27
2019-02-07T19:32:04.026Z,13.90
2019-02-07T19:34:35.194Z,13.00
2019-02-07T19:37:06.123Z,12.07
2019-02-07T19:39:37.390Z,13.70
2019-02-07T19:42:08.356Z,14.30
2019-02-07T19:44:39.285Z,15.40
2019-02-07T19:47:10.051Z,14.50
2019-02-07T19:49:41.264Z,12.58
2019-02-07T19:52:12.251Z,13.87
2019-02-07T19:54:43.449Z,12.85
2019-02-07T19:57:14.257Z,11.90
2019-02-07T19:59:45.256Z,14.85
2019-02-07T20:02:16.107Z,12.83
2019-02-07T20:04:47.268Z,12.85
2019-02-07T20:07:18.070Z,14.73
2019-02-07T20:09:48.705Z,17.23
2019-02-07T20:12:19.319Z,14.83
2019-02-07T20:14:50.192Z,17.27
2019-02-07T20:17:20.842Z,14.53
2019-02-07T20:19:52.003Z,15.25
2019-02-07T20:22:22.569Z,16.53
2019-02-07T20:24:53.196Z,12.70
2019-02-07T20:27:23.844Z,12.97
2019-02-07T20:29:54.523Z,17.23
2019-02-07T20:32:25.198Z,14.53
2019-02-07T20:34:56.180Z,12.17
2019-02-07T20:37:26.812Z,12.50
2019-02-07T20:39:57.553Z,10.63
2019-02-07T20:42:29.477Z,11.20
2019-02-07T20:45:00.473Z,11.47
2019-02-07T20:47:31.350Z,12.50
2019-02-07T20:50:02.279Z,13.03
2019-02-07T20:52:33.524Z,16.70
2019-02-07T20:55:05.607Z,12.93
2019-02-07T20:57:36.538Z,13.40
2019-02-07T21:00:14.849Z,14.70
2019-02-07T21:02:45.840Z,12.50
2019-02-07T21:05:17.191Z,12.53
2019-02-07T21:07:47.996Z,14.73
2019-02-07T21:10:20.259Z,15.53
2019-02-07T21:12:51.611Z,11.95
2019-02-07T21:15:22.396Z,15.17
2019-02-07T21:17:53.314Z,14.10
2019-02-07T21:20:26.604Z,15.90
2019-02-07T21:22:58.524Z,16.50
2019-02-07T21:25:42.922Z,15.90
2019-02-07T21:28:13.926Z,14.57
2019-02-07T21:30:44.796Z,14.53
2019-02-07T21:33:15.524Z,16.97
2019-02-07T21:35:46.408Z,11.90
2019-02-07T21:38:17.413Z,12.43
2019-02-07T21:40:48.261Z,14.00
2019-02-07T21:43:18.809Z,12.87
2019-02-07T21:45:49.472Z,13.27
2019-02-07T21:48:20.079Z,8.90
2019-02-07T21:50:50.679Z,15.03
2019-02-07T21:53:21.438Z,10.70
2019-02-07T21:55:52.331Z,13.07
2019-02-07T21:58:22.907Z,13.70
2019-02-07T22:00:53.415Z,12.43
2019-02-07T22:03:24.220Z,13.03
2019-02-07T22:05:54.749Z,14.93
2019-02-07T22:08:25.493Z,12.37
2019-02-07T22:10:56.466Z,12.80
2019-02-07T22:13:27.306Z,11.90
2019-02-07T22:15:58.148Z,12.73
2019-02-07T22:18:29.634Z,12.03
2019-02-07T22:21:00.539Z,10.80
2019-02-07T22:23:31.425Z,11.77
2019-02-07T22:26:02.275Z,11.40
2019-02-07T22:28:33.573Z,10.23
2019-02-07T22:31:04.337Z,11.70
2019-02-07T22:33:35.221Z,10.20
2019-02-07T22:36:06.024Z,11.07
2019-02-07T22:38:36.719Z,9.33
2019-02-07T22:41:07.365Z,11.33
2019-02-07T22:43:38.036Z,10.15
2019-02-07T22:46:08.577Z,9.53
2019-02-07T22:48:39.697Z,8.15
2019-02-07T22:51:10.511Z,11.87
2019-02-07T22:53:41.420Z,8.83
2019-02-07T22:56:12.299Z,12.35
2019-02-07T22:58:43.370Z,9.58
2019-02-07T23:01:30.475Z,7.23
2019-02-07T23:04:08.254Z,10.63
2019-02-07T23:06:39.081Z,9.33
2019-02-07T23:09:17.941Z,9.07
2019-02-07T23:11:48.577Z,8.03
2019-02-07T23:14:19.447Z,8.10
2019-02-07T23:16:50.368Z,8.93
2019-02-07T23:19:20.914Z,10.27
2019-02-07T23:21:51.463Z,8.20
2019-02-07T23:24:22.045Z,10.13
2019-02-07T23:26:54.548Z,9.67
2019-02-07T23:29:27.619Z,12.33
2019-02-07T23:31:58.622Z,10.00
2019-02-07T23:34:29.931Z,7.83
2019-02-07T23:37:00.516Z,8.03
2019-02-07T23:39:31.707Z,6.80
2019-02-07T23:42:02.521Z,6.80
2019-02-07T23:44:33.136Z,7.77
2019-02-07T23:47:03.741Z,7.13
2019-02-07T23:49:34.563Z,9.43
2019-02-07T23:52:05.451Z,6.90
2019-02-07T23:54:36.783Z,5.97
2019-02-07T23:57:07.614Z,6.57
2019-02-07T23:59:38.426Z,7.62
